sensor_id;sensor_type;location;lat;lon;timestamp;temperature;humidity
33271;DHT22;53180;51.344;6.152;2022-08-19T00:01:57;17.90;84.60
33271;DHT22;53180;51.344;6.152;2022-08-19T00:04:28;17.90;84.40
33271;DHT22;53180;51.344;6.152;2022-08-19T00:06:58;17.80;84.20
33271;DHT22;53180;51.344;6.152;2022-08-19T00:09:27;17.80;84.00
33271;DHT22;53180;51.344;6.152;2022-08-19T00:11:58;17.70;84.10
33271;DHT22;53180;51.344;6.152;2022-08-19T00:14:28;17.60;84.40
33271;DHT22;53180;51.344;6.152;2022-08-19T00:16:58;17.60;84.60
33271;DHT22;53180;51.344;6.152;2022-08-19T00:19:27;17.60;84.40
33271;DHT22;53180;51.344;6.152;2022-08-19T00:21:56;17.60;85.40
33271;DHT22;53180;51.344;6.152;2022-08-19T00:24:25;17.50;85.40
33271;DHT22;53180;51.344;6.152;2022-08-19T00:26:55;17.60;86.00
33271;DHT22;53180;51.344;6.152;2022-08-19T00:29:45;17.60;86.10
33271;DHT22;53180;51.344;6.152;2022-08-19T00:32:18;17.60;86.40
33271;DHT22;53180;51.344;6.152;2022-08-19T00:34:47;17.60;86.40
33271;DHT22;53180;51.344;6.152;2022-08-19T00:37:15;17.60;86.60
33271;DHT22;53180;51.344;6.152;2022-08-19T00:39:45;17.50;86.30
33271;DHT22;53180;51.344;6.152;2022-08-19T00:42:15;17.50;86.20
33271;DHT22;53180;51.344;6.152;2022-08-19T00:44:46;17.50;86.10
33271;DHT22;53180;51.344;6.152;2022-08-19T00:47:14;17.50;86.20
33271;DHT22;53180;51.344;6.152;2022-08-19T00:49:46;17.50;86.10
33271;DHT22;53180;51.344;6.152;2022-08-19T00:52:21;17.60;86.00
33271;DHT22;53180;51.344;6.152;2022-08-19T00:54:51;17.50;86.30
33271;DHT22;53180;51.344;6.152;2022-08-19T00:57:25;17.50;85.90
33271;DHT22;53180;51.344;6.152;2022-08-19T00:59:58;17.50;85.60
33271;DHT22;53180;51.344;6.152;2022-08-19T01:02:30;17.30;84.50
33271;DHT22;53180;51.344;6.152;2022-08-19T01:04:59;17.20;84.20
33271;DHT22;53180;51.344;6.152;2022-08-19T01:07:28;17.00;84.70
33271;DHT22;53180;51.344;6.152;2022-08-19T01:10:05;17.00;85.40
33271;DHT22;53180;51.344;6.152;2022-08-19T01:12:36;16.90;85.40
33271;DHT22;53180;51.344;6.152;2022-08-19T01:15:09;17.00;85.60
33271;DHT22;53180;51.344;6.152;2022-08-19T01:17:40;16.90;85.80
33271;DHT22;53180;51.344;6.152;2022-08-19T01:20:11;16.80;85.20
33271;DHT22;53180;51.344;6.152;2022-08-19T01:22:44;16.80;85.00
33271;DHT22;53180;51.344;6.152;2022-08-19T01:25:15;16.70;85.00
33271;DHT22;53180;51.344;6.152;2022-08-19T01:27:47;16.70;85.30
33271;DHT22;53180;51.344;6.152;2022-08-19T01:30:21;16.70;85.70
33271;DHT22;53180;51.344;6.152;2022-08-19T01:32:52;16.70;85.70
33271;DHT22;53180;51.344;6.152;2022-08-19T01:35:22;16.80;86.50
33271;DHT22;53180;51.344;6.152;2022-08-19T01:37:56;16.80;86.10
33271;DHT22;53180;51.344;6.152;2022-08-19T01:40:30;16.80;86.10
33271;DHT22;53180;51.344;6.152;2022-08-19T01:43:00;16.80;86.40
33271;DHT22;53180;51.344;6.152;2022-08-19T01:45:30;16.80;86.00
33271;DHT22;53180;51.344;6.152;2022-08-19T01:48:01;16.80;85.80
33271;DHT22;53180;51.344;6.152;2022-08-19T01:50:32;16.60;85.40
33271;DHT22;53180;51.344;6.152;2022-08-19T01:53:04;16.60;85.60
33271;DHT22;53180;51.344;6.152;2022-08-19T01:55:36;16.60;85.90
33271;DHT22;53180;51.344;6.152;2022-08-19T01:58:08;16.50;85.90
33271;DHT22;53180;51.344;6.152;2022-08-19T02:00:39;16.50;85.90
33271;DHT22;53180;51.344;6.152;2022-08-19T02:03:08;16.60;85.60
33271;DHT22;53180;51.344;6.152;2022-08-19T02:05:38;16.60;85.40
33271;DHT22;53180;51.344;6.152;2022-08-19T02:08:09;16.50;85.80
33271;DHT22;53180;51.344;6.152;2022-08-19T02:10:39;16.50;85.60
33271;DHT22;53180;51.344;6.152;2022-08-19T02:13:09;16.40;85.30
33271;DHT22;53180;51.344;6.152;2022-08-19T02:15:38;16.30;85.70
33271;DHT22;53180;51.344;6.152;2022-08-19T02:18:06;16.40;86.00
33271;DHT22;53180;51.344;6.152;2022-08-19T02:20:36;16.30;86.20
33271;DHT22;53180;51.344;6.152;2022-08-19T02:23:06;16.40;86.10
33271;DHT22;53180;51.344;6.152;2022-08-19T02:25:44;16.40;86.50
33271;DHT22;53180;51.344;6.152;2022-08-19T02:28:15;16.50;86.90
33271;DHT22;53180;51.344;6.152;2022-08-19T02:30:46;16.50;86.80
33271;DHT22;53180;51.344;6.152;2022-08-19T02:33:15;16.50;87.50
33271;DHT22;53180;51.344;6.152;2022-08-19T02:35:44;16.50;87.20
33271;DHT22;53180;51.344;6.152;2022-08-19T02:38:14;16.50;87.50
33271;DHT22;53180;51.344;6.152;2022-08-19T02:40:56;16.60;87.70
33271;DHT22;53180;51.344;6.152;2022-08-19T02:43:27;16.60;87.60
33271;DHT22;53180;51.344;6.152;2022-08-19T02:46:01;16.70;88.10
33271;DHT22;53180;51.344;6.152;2022-08-19T02:48:30;16.70;88.10
33271;DHT22;53180;51.344;6.152;2022-08-19T02:50:59;16.70;88.40
33271;DHT22;53180;51.344;6.152;2022-08-19T02:53:28;16.70;88.00
33271;DHT22;53180;51.344;6.152;2022-08-19T02:55:57;16.60;87.70
33271;DHT22;53180;51.344;6.152;2022-08-19T02:58:26;16.70;88.10
33271;DHT22;53180;51.344;6.152;2022-08-19T03:00:55;16.60;87.80
33271;DHT22;53180;51.344;6.152;2022-08-19T03:03:25;16.60;87.70
33271;DHT22;53180;51.344;6.152;2022-08-19T03:06:07;16.60;87.90
33271;DHT22;53180;51.344;6.152;2022-08-19T03:08:37;16.50;88.00
33271;DHT22;53180;51.344;6.152;2022-08-19T03:11:13;16.50;88.40
33271;DHT22;53180;51.344;6.152;2022-08-19T03:13:41;16.50;88.70
33271;DHT22;53180;51.344;6.152;2022-08-19T03:16:11;16.50;89.00
33271;DHT22;53180;51.344;6.152;2022-08-19T03:18:40;16.50;89.10
33271;DHT22;53180;51.344;6.152;2022-08-19T03:21:10;16.50;89.00
33271;DHT22;53180;51.344;6.152;2022-08-19T03:23:43;16.50;89.00
33271;DHT22;53180;51.344;6.152;2022-08-19T03:26:12;16.50;88.90
33271;DHT22;53180;51.344;6.152;2022-08-19T03:28:43;16.50;88.60
33271;DHT22;53180;51.344;6.152;2022-08-19T03:31:24;16.50;88.30
33271;DHT22;53180;51.344;6.152;2022-08-19T03:34:15;16.50;88.10
33271;DHT22;53180;51.344;6.152;2022-08-19T03:36:45;16.40;88.00
33271;DHT22;53180;51.344;6.152;2022-08-19T03:39:15;16.40;88.30
33271;DHT22;53180;51.344;6.152;2022-08-19T03:41:48;16.40;88.20
33271;DHT22;53180;51.344;6.152;2022-08-19T03:44:37;16.40;88.00
33271;DHT22;53180;51.344;6.152;2022-08-19T03:47:05;16.30;88.20
33271;DHT22;53180;51.344;6.152;2022-08-19T03:49:34;16.30;88.10
33271;DHT22;53180;51.344;6.152;2022-08-19T03:52:04;16.30;88.50
33271;DHT22;53180;51.344;6.152;2022-08-19T03:54:34;16.30;88.40
33271;DHT22;53180;51.344;6.152;2022-08-19T03:57:04;16.20;88.50
33271;DHT22;53180;51.344;6.152;2022-08-19T03:59:35;16.30;88.40
33271;DHT22;53180;51.344;6.152;2022-08-19T04:02:08;16.30;88.80
33271;DHT22;53180;51.344;6.152;2022-08-19T04:04:39;16.30;88.80
33271;DHT22;53180;51.344;6.152;2022-08-19T04:07:11;16.40;89.20
33271;DHT22;53180;51.344;6.152;2022-08-19T04:09:44;16.40;89.50
33271;DHT22;53180;51.344;6.152;2022-08-19T04:12:14;16.40;89.30
33271;DHT22;53180;51.344;6.152;2022-08-19T04:14:42;16.50;89.50
33271;DHT22;53180;51.344;6.152;2022-08-19T04:17:11;16.50;89.30
33271;DHT22;53180;51.344;6.152;2022-08-19T04:19:40;16.40;89.30
33271;DHT22;53180;51.344;6.152;2022-08-19T04:22:09;16.40;89.30
33271;DHT22;53180;51.344;6.152;2022-08-19T04:24:38;16.40;89.10
33271;DHT22;53180;51.344;6.152;2022-08-19T04:27:06;16.40;89.30
33271;DHT22;53180;51.344;6.152;2022-08-19T04:29:36;16.40;89.10
33271;DHT22;53180;51.344;6.152;2022-08-19T04:32:06;16.40;89.10
33271;DHT22;53180;51.344;6.152;2022-08-19T04:34:36;16.40;88.90
33271;DHT22;53180;51.344;6.152;2022-08-19T04:37:25;16.40;89.40
33271;DHT22;53180;51.344;6.152;2022-08-19T04:40:03;16.40;89.60
33271;DHT22;53180;51.344;6.152;2022-08-19T04:42:50;16.50;89.60
33271;DHT22;53180;51.344;6.152;2022-08-19T04:45:22;16.50;90.00
33271;DHT22;53180;51.344;6.152;2022-08-19T04:47:54;16.50;90.20
33271;DHT22;53180;51.344;6.152;2022-08-19T04:50:45;16.50;90.20
33271;DHT22;53180;51.344;6.152;2022-08-19T04:53:13;16.60;90.30
33271;DHT22;53180;51.344;6.152;2022-08-19T04:55:42;16.60;90.30
33271;DHT22;53180;51.344;6.152;2022-08-19T04:58:10;16.60;90.20
33271;DHT22;53180;51.344;6.152;2022-08-19T05:00:40;16.60;90.50
33271;DHT22;53180;51.344;6.152;2022-08-19T05:03:08;16.60;90.60
33271;DHT22;53180;51.344;6.152;2022-08-19T05:05:39;16.70;90.80
33271;DHT22;53180;51.344;6.152;2022-08-19T05:08:10;16.80;91.00
33271;DHT22;53180;51.344;6.152;2022-08-19T05:10:41;16.80;91.30
33271;DHT22;53180;51.344;6.152;2022-08-19T05:13:09;16.90;91.40
33271;DHT22;53180;51.344;6.152;2022-08-19T05:15:38;17.00;91.60
33271;DHT22;53180;51.344;6.152;2022-08-19T05:18:07;17.00;91.60
33271;DHT22;53180;51.344;6.152;2022-08-19T05:20:53;17.10;91.50
33271;DHT22;53180;51.344;6.152;2022-08-19T05:23:39;17.20;91.60
33271;DHT22;53180;51.344;6.152;2022-08-19T05:26:07;17.30;91.40
33271;DHT22;53180;51.344;6.152;2022-08-19T05:28:37;17.40;91.10
33271;DHT22;53180;51.344;6.152;2022-08-19T05:31:06;17.40;90.90
33271;DHT22;53180;51.344;6.152;2022-08-19T05:33:34;17.50;90.80
33271;DHT22;53180;51.344;6.152;2022-08-19T05:36:03;17.50;90.70
33271;DHT22;53180;51.344;6.152;2022-08-19T05:38:34;17.50;90.60
33271;DHT22;53180;51.344;6.152;2022-08-19T05:41:07;17.60;90.50
33271;DHT22;53180;51.344;6.152;2022-08-19T05:43:36;17.70;90.30
33271;DHT22;53180;51.344;6.152;2022-08-19T05:46:06;17.70;90.20
33271;DHT22;53180;51.344;6.152;2022-08-19T05:48:35;17.70;90.20
33271;DHT22;53180;51.344;6.152;2022-08-19T05:51:04;17.70;90.10
33271;DHT22;53180;51.344;6.152;2022-08-19T05:53:34;17.80;90.20
33271;DHT22;53180;51.344;6.152;2022-08-19T05:56:04;17.70;90.20
33271;DHT22;53180;51.344;6.152;2022-08-19T05:58:33;17.70;90.10
33271;DHT22;53180;51.344;6.152;2022-08-19T06:01:03;17.60;90.20
33271;DHT22;53180;51.344;6.152;2022-08-19T06:03:36;17.60;90.20
33271;DHT22;53180;51.344;6.152;2022-08-19T06:06:07;17.60;90.20
33271;DHT22;53180;51.344;6.152;2022-08-19T06:08:36;17.70;90.30
33271;DHT22;53180;51.344;6.152;2022-08-19T06:11:21;17.80;90.70
33271;DHT22;53180;51.344;6.152;2022-08-19T06:13:52;17.70;90.60
33271;DHT22;53180;51.344;6.152;2022-08-19T06:16:27;17.70;90.60
33271;DHT22;53180;51.344;6.152;2022-08-19T06:19:01;17.80;90.70
33271;DHT22;53180;51.344;6.152;2022-08-19T06:21:36;17.80;90.80
33271;DHT22;53180;51.344;6.152;2022-08-19T06:24:07;18.00;90.70
33271;DHT22;53180;51.344;6.152;2022-08-19T06:26:39;18.00;90.50
33271;DHT22;53180;51.344;6.152;2022-08-19T06:29:10;18.20;90.40
33271;DHT22;53180;51.344;6.152;2022-08-19T06:31:53;18.30;90.00
33271;DHT22;53180;51.344;6.152;2022-08-19T06:34:24;18.40;89.70
33271;DHT22;53180;51.344;6.152;2022-08-19T06:36:54;18.50;89.70
33271;DHT22;53180;51.344;6.152;2022-08-19T06:39:28;18.50;89.50
33271;DHT22;53180;51.344;6.152;2022-08-19T06:42:00;18.60;88.70
33271;DHT22;53180;51.344;6.152;2022-08-19T06:44:32;18.70;88.80
33271;DHT22;53180;51.344;6.152;2022-08-19T06:47:12;18.80;88.40
33271;DHT22;53180;51.344;6.152;2022-08-19T06:49:53;18.80;88.20
33271;DHT22;53180;51.344;6.152;2022-08-19T06:52:27;19.00;88.00
33271;DHT22;53180;51.344;6.152;2022-08-19T06:54:55;19.00;87.30
33271;DHT22;53180;51.344;6.152;2022-08-19T06:57:26;19.00;87.40
33271;DHT22;53180;51.344;6.152;2022-08-19T06:59:59;19.10;87.40
33271;DHT22;53180;51.344;6.152;2022-08-19T07:02:29;19.20;87.40
33271;DHT22;53180;51.344;6.152;2022-08-19T07:04:57;19.30;87.10
33271;DHT22;53180;51.344;6.152;2022-08-19T07:07:26;19.30;86.40
33271;DHT22;53180;51.344;6.152;2022-08-19T07:09:54;19.40;86.20
33271;DHT22;53180;51.344;6.152;2022-08-19T07:12:28;19.50;86.20
33271;DHT22;53180;51.344;6.152;2022-08-19T07:15:02;19.50;86.10
33271;DHT22;53180;51.344;6.152;2022-08-19T07:17:32;19.60;85.50
33271;DHT22;53180;51.344;6.152;2022-08-19T07:20:02;19.70;85.60
33271;DHT22;53180;51.344;6.152;2022-08-19T07:22:35;19.80;85.30
33271;DHT22;53180;51.344;6.152;2022-08-19T07:25:06;19.90;84.90
33271;DHT22;53180;51.344;6.152;2022-08-19T07:27:35;19.90;84.70
33271;DHT22;53180;51.344;6.152;2022-08-19T07:30:06;20.00;84.30
33271;DHT22;53180;51.344;6.152;2022-08-19T07:32:39;20.00;84.20
33271;DHT22;53180;51.344;6.152;2022-08-19T07:35:09;20.10;84.20
33271;DHT22;53180;51.344;6.152;2022-08-19T07:37:37;20.20;83.90
33271;DHT22;53180;51.344;6.152;2022-08-19T07:40:11;20.20;83.50
33271;DHT22;53180;51.344;6.152;2022-08-19T07:42:40;20.30;83.00
33271;DHT22;53180;51.344;6.152;2022-08-19T07:45:10;20.20;83.20
33271;DHT22;53180;51.344;6.152;2022-08-19T07:47:39;20.20;83.40
33271;DHT22;53180;51.344;6.152;2022-08-19T07:50:18;20.20;82.90
33271;DHT22;53180;51.344;6.152;2022-08-19T07:52:48;20.20;82.80
33271;DHT22;53180;51.344;6.152;2022-08-19T07:55:20;20.10;83.20
33271;DHT22;53180;51.344;6.152;2022-08-19T07:58:09;20.20;82.40
33271;DHT22;53180;51.344;6.152;2022-08-19T08:00:38;20.10;82.50
33271;DHT22;53180;51.344;6.152;2022-08-19T08:03:08;20.10;82.40
33271;DHT22;53180;51.344;6.152;2022-08-19T08:05:40;20.10;82.60
33271;DHT22;53180;51.344;6.152;2022-08-19T08:08:26;20.10;82.80
33271;DHT22;53180;51.344;6.152;2022-08-19T08:11:16;20.20;82.30
33271;DHT22;53180;51.344;6.152;2022-08-19T08:13:47;20.20;82.10
33271;DHT22;53180;51.344;6.152;2022-08-19T08:16:30;20.20;82.20
33271;DHT22;53180;51.344;6.152;2022-08-19T08:19:03;20.30;82.00
33271;DHT22;53180;51.344;6.152;2022-08-19T08:21:44;20.30;81.30
33271;DHT22;53180;51.344;6.152;2022-08-19T08:24:12;20.30;81.70
33271;DHT22;53180;51.344;6.152;2022-08-19T08:26:41;20.50;81.10
33271;DHT22;53180;51.344;6.152;2022-08-19T08:29:17;20.60;81.20
33271;DHT22;53180;51.344;6.152;2022-08-19T08:31:47;20.70;80.60
33271;DHT22;53180;51.344;6.152;2022-08-19T08:34:27;20.80;80.30
33271;DHT22;53180;51.344;6.152;2022-08-19T08:36:55;20.90;79.50
33271;DHT22;53180;51.344;6.152;2022-08-19T08:39:23;21.00;78.60
33271;DHT22;53180;51.344;6.152;2022-08-19T08:41:55;21.10;78.10
33271;DHT22;53180;51.344;6.152;2022-08-19T08:44:43;21.20;77.60
33271;DHT22;53180;51.344;6.152;2022-08-19T08:47:19;21.40;78.20
33271;DHT22;53180;51.344;6.152;2022-08-19T08:49:53;21.50;75.90
33271;DHT22;53180;51.344;6.152;2022-08-19T08:52:26;21.70;75.80
33271;DHT22;53180;51.344;6.152;2022-08-19T08:55:00;21.70;76.00
33271;DHT22;53180;51.344;6.152;2022-08-19T08:57:41;22.00;75.80
33271;DHT22;53180;51.344;6.152;2022-08-19T09:00:19;22.20;74.90
33271;DHT22;53180;51.344;6.152;2022-08-19T09:02:49;22.40;72.70
33271;DHT22;53180;51.344;6.152;2022-08-19T09:05:20;22.60;72.70
33271;DHT22;53180;51.344;6.152;2022-08-19T09:07:58;22.80;72.10
33271;DHT22;53180;51.344;6.152;2022-08-19T09:10:32;22.80;72.20
33271;DHT22;53180;51.344;6.152;2022-08-19T09:13:14;23.10;71.70
33271;DHT22;53180;51.344;6.152;2022-08-19T09:15:52;23.20;70.40
33271;DHT22;53180;51.344;6.152;2022-08-19T09:18:22;23.30;70.50
33271;DHT22;53180;51.344;6.152;2022-08-19T09:20:56;23.30;69.90
33271;DHT22;53180;51.344;6.152;2022-08-19T09:23:25;23.40;70.80
33271;DHT22;53180;51.344;6.152;2022-08-19T09:25:53;23.50;69.20
33271;DHT22;53180;51.344;6.152;2022-08-19T09:28:21;23.60;69.50
33271;DHT22;53180;51.344;6.152;2022-08-19T09:30:53;23.80;69.20
33271;DHT22;53180;51.344;6.152;2022-08-19T09:33:21;23.70;69.60
33271;DHT22;53180;51.344;6.152;2022-08-19T09:35:49;23.80;68.70
33271;DHT22;53180;51.344;6.152;2022-08-19T09:38:20;23.80;69.00
33271;DHT22;53180;51.344;6.152;2022-08-19T09:40:49;24.10;68.40
33271;DHT22;53180;51.344;6.152;2022-08-19T09:43:17;24.30;67.20
33271;DHT22;53180;51.344;6.152;2022-08-19T09:45:59;24.30;67.20
33271;DHT22;53180;51.344;6.152;2022-08-19T09:48:28;24.50;67.70
33271;DHT22;53180;51.344;6.152;2022-08-19T09:51:02;24.80;67.50
33271;DHT22;53180;51.344;6.152;2022-08-19T09:53:33;24.90;65.10
33271;DHT22;53180;51.344;6.152;2022-08-19T09:56:03;25.00;64.70
33271;DHT22;53180;51.344;6.152;2022-08-19T09:58:36;25.10;64.10
33271;DHT22;53180;51.344;6.152;2022-08-19T10:01:06;25.20;64.70
33271;DHT22;53180;51.344;6.152;2022-08-19T10:03:36;25.40;63.00
33271;DHT22;53180;51.344;6.152;2022-08-19T10:06:05;25.50;63.10
33271;DHT22;53180;51.344;6.152;2022-08-19T10:08:45;25.50;62.10
33271;DHT22;53180;51.344;6.152;2022-08-19T10:11:16;25.50;61.50
33271;DHT22;53180;51.344;6.152;2022-08-19T10:14:05;25.80;62.50
33271;DHT22;53180;51.344;6.152;2022-08-19T10:16:35;25.70;61.40
33271;DHT22;53180;51.344;6.152;2022-08-19T10:19:05;25.80;61.80
33271;DHT22;53180;51.344;6.152;2022-08-19T10:21:34;26.00;61.60
33271;DHT22;53180;51.344;6.152;2022-08-19T10:24:07;26.10;60.90
33271;DHT22;53180;51.344;6.152;2022-08-19T10:26:37;26.30;60.50
33271;DHT22;53180;51.344;6.152;2022-08-19T10:29:08;26.40;58.90
33271;DHT22;53180;51.344;6.152;2022-08-19T10:31:37;26.30;58.50
33271;DHT22;53180;51.344;6.152;2022-08-19T10:34:27;26.20;59.70
33271;DHT22;53180;51.344;6.152;2022-08-19T10:36:57;26.20;58.90
33271;DHT22;53180;51.344;6.152;2022-08-19T10:39:30;26.20;59.00
33271;DHT22;53180;51.344;6.152;2022-08-19T10:42:10;26.30;58.80
33271;DHT22;53180;51.344;6.152;2022-08-19T10:44:40;26.30;59.10
33271;DHT22;53180;51.344;6.152;2022-08-19T10:47:08;26.30;58.20
33271;DHT22;53180;51.344;6.152;2022-08-19T10:49:51;26.40;57.70
33271;DHT22;53180;51.344;6.152;2022-08-19T10:52:38;26.50;58.30
33271;DHT22;53180;51.344;6.152;2022-08-19T10:55:18;26.80;57.10
33271;DHT22;53180;51.344;6.152;2022-08-19T10:58:10;27.20;55.10
33271;DHT22;53180;51.344;6.152;2022-08-19T11:00:40;27.30;53.60
33271;DHT22;53180;51.344;6.152;2022-08-19T11:03:09;27.40;54.60
33271;DHT22;53180;51.344;6.152;2022-08-19T11:05:38;27.40;54.80
33271;DHT22;53180;51.344;6.152;2022-08-19T11:08:07;27.70;52.90
33271;DHT22;53180;51.344;6.152;2022-08-19T11:10:52;27.80;52.50
33271;DHT22;53180;51.344;6.152;2022-08-19T11:13:22;28.00;51.90
33271;DHT22;53180;51.344;6.152;2022-08-19T11:15:59;28.10;52.70
33271;DHT22;53180;51.344;6.152;2022-08-19T11:18:33;28.10;50.50
33271;DHT22;53180;51.344;6.152;2022-08-19T11:21:08;28.30;50.50
33271;DHT22;53180;51.344;6.152;2022-08-19T11:23:38;28.20;50.50
33271;DHT22;53180;51.344;6.152;2022-08-19T11:26:08;27.90;49.70
33271;DHT22;53180;51.344;6.152;2022-08-19T11:28:36;28.10;48.30
33271;DHT22;53180;51.344;6.152;2022-08-19T11:31:10;28.30;49.00
33271;DHT22;53180;51.344;6.152;2022-08-19T11:33:39;28.40;47.80
33271;DHT22;53180;51.344;6.152;2022-08-19T11:36:13;28.60;48.20
33271;DHT22;53180;51.344;6.152;2022-08-19T11:38:42;28.70;48.60
33271;DHT22;53180;51.344;6.152;2022-08-19T11:41:15;28.80;47.10
33271;DHT22;53180;51.344;6.152;2022-08-19T11:43:44;28.80;47.30
33271;DHT22;53180;51.344;6.152;2022-08-19T11:46:14;29.00;48.20
33271;DHT22;53180;51.344;6.152;2022-08-19T11:48:43;29.10;46.70
33271;DHT22;53180;51.344;6.152;2022-08-19T11:51:13;29.30;46.40
33271;DHT22;53180;51.344;6.152;2022-08-19T11:53:45;29.40;46.50
33271;DHT22;53180;51.344;6.152;2022-08-19T11:56:15;29.30;46.90
33271;DHT22;53180;51.344;6.152;2022-08-19T11:58:43;29.30;46.60
33271;DHT22;53180;51.344;6.152;2022-08-19T12:01:14;29.10;46.20
33271;DHT22;53180;51.344;6.152;2022-08-19T12:03:45;29.00;46.50
33271;DHT22;53180;51.344;6.152;2022-08-19T12:06:16;29.00;47.00
33271;DHT22;53180;51.344;6.152;2022-08-19T12:08:46;28.70;47.90
33271;DHT22;53180;51.344;6.152;2022-08-19T12:11:16;28.70;47.30
33271;DHT22;53180;51.344;6.152;2022-08-19T12:13:44;28.80;47.60
33271;DHT22;53180;51.344;6.152;2022-08-19T12:16:16;28.90;47.00
33271;DHT22;53180;51.344;6.152;2022-08-19T12:18:46;29.10;47.70
33271;DHT22;53180;51.344;6.152;2022-08-19T12:21:15;28.80;47.40
33271;DHT22;53180;51.344;6.152;2022-08-19T12:23:44;28.90;47.50
33271;DHT22;53180;51.344;6.152;2022-08-19T12:26:13;28.60;48.40
33271;DHT22;53180;51.344;6.152;2022-08-19T12:28:43;28.80;47.40
33271;DHT22;53180;51.344;6.152;2022-08-19T12:31:11;28.60;48.70
33271;DHT22;53180;51.344;6.152;2022-08-19T12:33:40;28.60;48.90
33271;DHT22;53180;51.344;6.152;2022-08-19T12:36:11;28.80;48.60
33271;DHT22;53180;51.344;6.152;2022-08-19T12:38:41;28.80;49.10
33271;DHT22;53180;51.344;6.152;2022-08-19T12:41:13;28.80;49.00
33271;DHT22;53180;51.344;6.152;2022-08-19T12:43:46;28.50;49.40
33271;DHT22;53180;51.344;6.152;2022-08-19T12:46:15;28.30;49.30
33271;DHT22;53180;51.344;6.152;2022-08-19T12:48:44;28.20;49.60
33271;DHT22;53180;51.344;6.152;2022-08-19T12:51:20;28.10;49.50
33271;DHT22;53180;51.344;6.152;2022-08-19T12:53:49;28.00;49.70
33271;DHT22;53180;51.344;6.152;2022-08-19T12:56:17;27.70;49.80
33271;DHT22;53180;51.344;6.152;2022-08-19T12:58:50;27.60;50.50
33271;DHT22;53180;51.344;6.152;2022-08-19T13:01:19;27.40;50.80
33271;DHT22;53180;51.344;6.152;2022-08-19T13:03:49;27.60;51.50
33271;DHT22;53180;51.344;6.152;2022-08-19T13:06:19;27.50;50.50
33271;DHT22;53180;51.344;6.152;2022-08-19T13:08:48;27.80;49.60
33271;DHT22;53180;51.344;6.152;2022-08-19T13:11:18;27.80;49.20
33271;DHT22;53180;51.344;6.152;2022-08-19T13:13:52;28.00;48.50
33271;DHT22;53180;51.344;6.152;2022-08-19T13:16:21;28.10;48.50
33271;DHT22;53180;51.344;6.152;2022-08-19T13:18:50;28.20;48.80
33271;DHT22;53180;51.344;6.152;2022-08-19T13:21:20;28.30;49.10
33271;DHT22;53180;51.344;6.152;2022-08-19T13:23:50;28.20;49.30
33271;DHT22;53180;51.344;6.152;2022-08-19T13:26:19;28.30;47.70
33271;DHT22;53180;51.344;6.152;2022-08-19T13:28:47;28.40;48.50
33271;DHT22;53180;51.344;6.152;2022-08-19T13:31:35;28.60;48.50
33271;DHT22;53180;51.344;6.152;2022-08-19T13:34:28;28.80;47.70
33271;DHT22;53180;51.344;6.152;2022-08-19T13:36:58;28.80;48.00
33271;DHT22;53180;51.344;6.152;2022-08-19T13:39:26;28.90;47.10
33271;DHT22;53180;51.344;6.152;2022-08-19T13:41:54;28.80;47.10
33271;DHT22;53180;51.344;6.152;2022-08-19T13:44:23;28.80;47.90
33271;DHT22;53180;51.344;6.152;2022-08-19T13:46:52;28.90;47.80
33271;DHT22;53180;51.344;6.152;2022-08-19T13:49:20;28.80;47.40
33271;DHT22;53180;51.344;6.152;2022-08-19T13:51:49;28.80;48.20
33271;DHT22;53180;51.344;6.152;2022-08-19T13:54:18;28.80;49.10
33271;DHT22;53180;51.344;6.152;2022-08-19T13:56:46;28.80;48.80
33271;DHT22;53180;51.344;6.152;2022-08-19T13:59:15;28.80;49.00
33271;DHT22;53180;51.344;6.152;2022-08-19T14:01:44;28.80;48.30
33271;DHT22;53180;51.344;6.152;2022-08-19T14:04:13;28.70;48.50
33271;DHT22;53180;51.344;6.152;2022-08-19T14:06:42;28.50;49.10
33271;DHT22;53180;51.344;6.152;2022-08-19T14:09:10;28.40;49.40
33271;DHT22;53180;51.344;6.152;2022-08-19T14:11:38;28.30;50.30
33271;DHT22;53180;51.344;6.152;2022-08-19T14:14:06;28.10;51.30
33271;DHT22;53180;51.344;6.152;2022-08-19T14:16:40;28.00;52.60
33271;DHT22;53180;51.344;6.152;2022-08-19T14:19:09;28.10;52.20
33271;DHT22;53180;51.344;6.152;2022-08-19T14:21:38;28.10;52.20
33271;DHT22;53180;51.344;6.152;2022-08-19T14:24:07;28.10;52.10
33271;DHT22;53180;51.344;6.152;2022-08-19T14:26:36;28.10;52.70
33271;DHT22;53180;51.344;6.152;2022-08-19T14:29:05;28.10;51.90
33271;DHT22;53180;51.344;6.152;2022-08-19T14:31:33;28.10;52.40
33271;DHT22;53180;51.344;6.152;2022-08-19T14:34:01;28.00;52.30
33271;DHT22;53180;51.344;6.152;2022-08-19T14:36:29;27.90;53.00
33271;DHT22;53180;51.344;6.152;2022-08-19T14:39:06;27.80;53.20
33271;DHT22;53180;51.344;6.152;2022-08-19T14:41:35;27.80;54.00
33271;DHT22;53180;51.344;6.152;2022-08-19T14:44:03;27.80;54.30
33271;DHT22;53180;51.344;6.152;2022-08-19T14:46:32;27.90;53.70
33271;DHT22;53180;51.344;6.152;2022-08-19T14:49:00;27.80;53.10
33271;DHT22;53180;51.344;6.152;2022-08-19T14:51:35;27.80;52.70
33271;DHT22;53180;51.344;6.152;2022-08-19T14:54:03;27.80;52.40
33271;DHT22;53180;51.344;6.152;2022-08-19T14:56:33;27.80;53.20
33271;DHT22;53180;51.344;6.152;2022-08-19T14:59:01;27.80;53.40
33271;DHT22;53180;51.344;6.152;2022-08-19T15:01:29;27.80;54.20
33271;DHT22;53180;51.344;6.152;2022-08-19T15:03:58;27.60;54.70
33271;DHT22;53180;51.344;6.152;2022-08-19T15:06:27;27.30;55.50
33271;DHT22;53180;51.344;6.152;2022-08-19T15:08:56;27.00;55.50
33271;DHT22;53180;51.344;6.152;2022-08-19T15:11:30;26.90;56.20
33271;DHT22;53180;51.344;6.152;2022-08-19T15:14:00;26.90;56.10
33271;DHT22;53180;51.344;6.152;2022-08-19T15:16:29;26.70;56.30
33271;DHT22;53180;51.344;6.152;2022-08-19T15:18:59;26.80;56.70
33271;DHT22;53180;51.344;6.152;2022-08-19T15:21:28;26.70;56.90
33271;DHT22;53180;51.344;6.152;2022-08-19T15:23:58;26.80;57.60
33271;DHT22;53180;51.344;6.152;2022-08-19T15:26:27;26.80;57.30
33271;DHT22;53180;51.344;6.152;2022-08-19T15:29:00;26.90;57.00
33271;DHT22;53180;51.344;6.152;2022-08-19T15:31:30;26.80;56.90
33271;DHT22;53180;51.344;6.152;2022-08-19T15:44:58;26.50;57.30
33271;DHT22;53180;51.344;6.152;2022-08-19T15:50:14;26.50;58.00
33271;DHT22;53180;51.344;6.152;2022-08-19T15:52:46;26.50;58.40
33271;DHT22;53180;51.344;6.152;2022-08-19T15:55:16;26.50;58.70
33271;DHT22;53180;51.344;6.152;2022-08-19T15:58:00;26.50;58.10
33271;DHT22;53180;51.344;6.152;2022-08-19T16:00:56;26.40;57.60
33271;DHT22;53180;51.344;6.152;2022-08-19T16:03:46;26.30;58.20
33271;DHT22;53180;51.344;6.152;2022-08-19T16:06:42;26.30;58.40
33271;DHT22;53180;51.344;6.152;2022-08-19T16:09:12;26.30;58.70
33271;DHT22;53180;51.344;6.152;2022-08-19T16:11:42;26.20;59.60
33271;DHT22;53180;51.344;6.152;2022-08-19T16:21:23;26.00;59.70